Time;durP1;ratioP1;P1;durP2;ratioP2;P2;SDS_P1;SDS_P2;PMS_P1;PMS_P2;Temp;Humidity;BMP_temperature;BMP_pressure;BME280_temperature;BME280_humidity;BME280_pressure;Samples;Min_cycle;Max_cycle;Signal;HPM_P1;HPM_P2
2023/03/10 00:01:17;;;;;;;36.60;23.80;;;;;;;2.91;100.00;97093.01;133667;1272;22552;-85
2023/03/10 00:04:20;;;;;;;40.00;23.30;;;;;;;2.92;100.00;97095.14;133161;1276;22514;-85
2023/03/10 00:07:23;;;;;;;43.40;25.30;;;;;;;2.93;100.00;97096.09;132888;1276;24363;-83
2023/03/10 00:10:26;;;;;;;38.80;22.00;;;;;;;2.93;100.00;97079.19;132751;1276;22539;-85
2023/03/10 00:13:29;;;;;;;41.60;22.90;;;;;;;2.90;100.00;97070.91;132986;1276;22612;-86
2023/03/10 00:16:31;;;;;;;43.60;25.30;;;;;;;2.87;100.00;97071.20;133164;1276;22539;-86
2023/03/10 00:19:34;;;;;;;45.90;24.80;;;;;;;2.86;100.00;97065.69;133079;1276;22515;-87
2023/03/10 00:22:37;;;;;;;39.00;24.10;;;;;;;2.83;100.00;97067.04;133089;1276;22775;-86
2023/03/10 00:25:40;;;;;;;45.30;26.60;;;;;;;2.79;100.00;97051.95;132958;1276;24042;-87
2023/03/10 00:28:43;;;;;;;46.40;25.30;;;;;;;2.79;100.00;97054.34;132966;1276;23310;-86
2023/03/10 00:31:46;;;;;;;40.40;24.80;;;;;;;2.83;100.00;97071.00;132939;1276;22682;-86
2023/03/10 00:34:49;;;;;;;42.80;25.80;;;;;;;2.84;100.00;97074.98;132974;1276;22562;-87
2023/03/10 00:37:52;;;;;;;47.30;26.00;;;;;;;2.87;100.00;97073.11;132946;1276;25428;-87
2023/03/10 00:40:55;;;;;;;38.70;24.00;;;;;;;2.91;100.00;97070.77;133046;1272;22733;-88
2023/03/10 00:43:58;;;;;;;43.30;24.70;;;;;;;2.99;100.00;97067.14;134021;1276;25348;-85
2023/03/10 00:47:00;;;;;;;39.30;24.90;;;;;;;2.99;100.00;97059.70;134545;1276;24003;-82
2023/03/10 00:50:03;;;;;;;40.80;24.10;;;;;;;3.00;100.00;97059.09;133904;1276;23939;-84
2023/03/10 00:53:06;;;;;;;38.80;23.80;;;;;;;2.98;100.00;97053.13;133872;1276;24363;-86
2023/03/10 00:56:09;;;;;;;41.80;26.10;;;;;;;2.97;100.00;97045.51;133129;1276;25329;-87
2023/03/10 00:59:13;;;;;;;41.50;24.40;;;;;;;2.99;100.00;97045.23;133109;1276;24251;-87
2023/03/10 01:02:16;;;;;;;44.70;25.90;;;;;;;3.01;100.00;97040.21;133088;1276;25462;-86
2023/03/10 01:05:19;;;;;;;45.10;27.40;;;;;;;3.05;100.00;97029.77;133128;1276;22544;-86
2023/03/10 01:08:22;;;;;;;41.50;24.60;;;;;;;3.09;100.00;97019.45;133086;1276;22514;-87
2023/03/10 01:11:25;;;;;;;48.30;27.90;;;;;;;3.12;100.00;97012.89;133166;1276;24250;-87
2023/03/10 01:14:28;;;;;;;43.50;26.50;;;;;;;3.16;100.00;97012.94;133162;1276;22535;-88
2023/03/10 01:17:31;;;;;;;46.30;27.10;;;;;;;3.17;100.00;97012.52;133021;1276;24426;-87
2023/03/10 01:20:34;;;;;;;42.00;26.20;;;;;;;3.20;100.00;97006.68;132963;1276;22635;-87
2023/03/10 01:23:37;;;;;;;47.50;26.50;;;;;;;3.25;100.00;97001.14;132965;1276;24196;-87
2023/03/10 01:26:40;;;;;;;45.80;26.80;;;;;;;3.28;100.00;96997.94;133060;1276;22543;-87
2023/03/10 01:29:43;;;;;;;49.40;28.60;;;;;;;3.36;100.00;96994.80;132991;1276;22578;-87
2023/03/10 01:32:46;;;;;;;43.00;25.90;;;;;;;3.41;100.00;96987.27;133041;1276;22580;-88
2023/03/10 01:35:49;;;;;;;43.40;27.30;;;;;;;3.47;100.00;96987.19;133008;1275;22572;-88
2023/03/10 01:38:52;;;;;;;49.80;28.60;;;;;;;3.51;100.00;96978.93;132918;1276;25246;-87
2023/03/10 01:41:55;;;;;;;51.50;30.00;;;;;;;3.57;100.00;96979.10;132948;1276;22547;-87
2023/03/10 01:44:58;;;;;;;49.10;29.30;;;;;;;3.68;100.00;96975.23;133084;1276;24258;-87
2023/03/10 01:48:01;;;;;;;51.70;30.60;;;;;;;3.78;100.00;96972.05;133100;1276;25317;-87
2023/03/10 01:51:04;;;;;;;43.30;27.70;;;;;;;3.85;100.00;96970.91;132976;1276;22640;-86
2023/03/10 01:54:07;;;;;;;50.00;29.20;;;;;;;3.88;100.00;96969.05;133008;1276;22542;-86
2023/03/10 01:57:10;;;;;;;47.00;26.70;;;;;;;3.87;100.00;96962.19;133029;1276;24612;-85
2023/03/10 02:00:14;;;;;;;45.60;27.50;;;;;;;3.84;100.00;96955.42;133135;1276;25407;-87
2023/03/10 02:03:17;;;;;;;48.40;28.00;;;;;;;3.83;100.00;96946.23;132968;1276;22528;-87
2023/03/10 02:06:20;;;;;;;47.80;28.00;;;;;;;3.81;100.00;96950.98;133060;1276;24030;-86
2023/03/10 02:09:23;;;;;;;47.20;28.80;;;;;;;3.79;100.00;96939.94;132940;1276;22609;-85
2023/03/10 02:12:26;;;;;;;48.20;28.80;;;;;;;3.75;100.00;96938.89;132914;1276;24286;-85
2023/03/10 02:15:29;;;;;;;47.00;29.20;;;;;;;3.74;100.00;96937.67;132916;1276;26071;-87
2023/03/10 02:18:32;;;;;;;50.30;28.40;;;;;;;3.74;100.00;96936.82;132990;1276;25314;-86
2023/03/10 02:21:35;;;;;;;51.20;28.60;;;;;;;3.72;100.00;96940.63;132929;1276;24429;-86
2023/03/10 02:24:37;;;;;;;49.60;29.00;;;;;;;3.71;100.00;96933.45;132991;1276;25502;-86
2023/03/10 02:27:40;;;;;;;47.70;29.00;;;;;;;3.73;100.00;96932.76;133029;1276;22715;-86
2023/03/10 02:30:43;;;;;;;43.50;27.50;;;;;;;3.73;100.00;96929.98;132781;1276;253729;-86
2023/03/10 02:33:46;;;;;;;48.90;29.80;;;;;;;3.69;100.00;96934.04;132994;1255;22512;-88
2023/03/10 02:36:49;;;;;;;47.50;28.10;;;;;;;3.68;100.00;96931.04;133025;1276;22527;-87
2023/03/10 02:39:52;;;;;;;49.70;29.60;;;;;;;3.72;100.00;96921.08;132984;1276;24254;-87
2023/03/10 02:42:55;;;;;;;51.30;29.80;;;;;;;3.75;100.00;96917.17;133052;1276;23275;-88
2023/03/10 02:45:58;;;;;;;51.00;29.60;;;;;;;3.79;100.00;96921.53;132921;1263;22543;-86
2023/03/10 02:49:01;;;;;;;48.80;28.90;;;;;;;3.84;100.00;96924.06;133363;1276;23420;-88
2023/03/10 02:52:04;;;;;;;47.00;28.40;;;;;;;3.89;100.00;96926.55;133441;1276;22577;-87
2023/03/10 02:55:07;;;;;;;50.70;28.90;;;;;;;3.95;100.00;96923.93;133454;1276;22570;-84
2023/03/10 02:58:10;;;;;;;52.50;29.30;;;;;;;3.98;100.00;96923.68;133528;1276;22593;-85
2023/03/10 03:01:13;;;;;;;48.00;29.00;;;;;;;4.03;100.00;96922.34;133531;1275;22520;-85
2023/03/10 03:04:16;;;;;;;50.50;29.80;;;;;;;4.07;100.00;96914.22;133440;1276;24342;-86
2023/03/10 03:07:18;;;;;;;53.20;29.90;;;;;;;4.09;100.00;96908.45;132961;1276;23901;-85
2023/03/10 03:10:21;;;;;;;51.30;30.10;;;;;;;4.10;100.00;96902.77;133075;1276;24312;-86
2023/03/10 03:13:24;;;;;;;49.30;28.60;;;;;;;4.11;100.00;96900.20;133146;1276;22951;-88
2023/03/10 03:16:27;;;;;;;49.60;28.50;;;;;;;4.15;100.00;96892.59;133442;1276;25310;-87
2023/03/10 03:19:30;;;;;;;48.00;28.80;;;;;;;4.17;100.00;96889.02;133078;1276;25369;-87
2023/03/10 03:22:33;;;;;;;45.10;26.30;;;;;;;4.20;100.00;96886.87;132921;1276;25313;-87
2023/03/10 03:25:36;;;;;;;41.60;25.30;;;;;;;4.23;100.00;96885.19;133096;1276;25452;-86
2023/03/10 03:28:39;;;;;;;45.40;28.90;;;;;;;4.24;100.00;96883.45;133044;1276;22641;-86
2023/03/10 03:31:42;;;;;;;56.20;27.80;;;;;;;4.28;100.00;96879.93;132999;1276;22581;-86
2023/03/10 03:34:45;;;;;;;40.80;24.80;;;;;;;4.32;100.00;96882.13;133000;1276;22780;-87
2023/03/10 03:37:48;;;;;;;44.40;26.60;;;;;;;4.34;100.00;96878.88;133100;1272;25626;-88
2023/03/10 03:40:51;;;;;;;42.20;25.20;;;;;;;4.35;100.00;96881.70;134343;1253;22534;-87
2023/03/10 03:43:53;;;;;;;40.10;23.90;;;;;;;4.35;100.00;96880.87;132851;1279;22663;-87
2023/03/10 03:46:56;;;;;;;41.30;23.70;;;;;;;4.35;100.00;96879.36;132615;1279;25441;-87
2023/03/10 03:49:59;;;;;;;44.30;23.70;;;;;;;4.39;100.00;96877.43;132581;1279;22530;-86
2023/03/10 03:53:02;;;;;;;34.60;22.20;;;;;;;4.39;100.00;96872.67;132561;1279;23963;-86
2023/03/10 03:56:05;;;;;;;38.80;22.30;;;;;;;4.41;100.00;96863.99;132491;1279;25571;-87
2023/03/10 03:59:08;;;;;;;37.70;21.20;;;;;;;4.41;100.00;96864.36;132629;1279;22567;-86
2023/03/10 04:02:11;;;;;;;32.90;19.80;;;;;;;4.41;100.00;96864.76;132496;1279;22669;-86
2023/03/10 04:05:14;;;;;;;33.60;20.10;;;;;;;4.40;100.00;96867.77;132632;1279;22730;-86
2023/03/10 04:08:17;;;;;;;39.00;21.20;;;;;;;4.40;100.00;96864.51;132555;1279;22561;-86
2023/03/10 04:11:20;;;;;;;28.60;17.70;;;;;;;4.39;100.00;96861.44;132494;1279;22538;-86
2023/03/10 04:14:23;;;;;;;37.30;19.10;;;;;;;4.36;100.00;96856.80;132569;1255;22529;-86
2023/03/10 04:17:26;;;;;;;29.50;18.40;;;;;;;4.34;100.00;96850.86;132594;1279;24279;-86
2023/03/10 04:20:29;;;;;;;33.70;18.80;;;;;;;4.32;100.00;96846.05;132570;1266;22536;-87
2023/03/10 04:23:32;;;;;;;32.10;17.10;;;;;;;4.32;100.00;96845.82;132540;1279;25805;-87
2023/03/10 04:26:35;;;;;;;26.20;15.20;;;;;;;4.32;100.00;96843.19;132729;1273;24246;-87
2023/03/10 04:29:38;;;;;;;27.60;16.20;;;;;;;4.33;100.00;96836.30;132625;1276;23879;-87
2023/03/10 04:32:41;;;;;;;21.10;14.80;;;;;;;4.34;100.00;96830.71;132716;1279;22642;-88
2023/03/10 04:35:46;;;;;;;23.00;13.80;;;;;;;4.36;100.00;96828.38;132749;1278;25490;-87
2023/03/10 04:38:49;;;;;;;24.10;15.10;;;;;;;4.37;100.00;96829.14;132683;1278;24369;-87
2023/03/10 04:41:52;;;;;;;20.30;12.90;;;;;;;4.40;100.00;96827.22;133263;1278;24408;-87
2023/03/10 04:44:55;;;;;;;22.40;14.10;;;;;;;4.40;100.00;96825.11;133498;1279;22535;-86
2023/03/10 04:47:58;;;;;;;22.50;13.00;;;;;;;4.41;100.00;96817.71;133550;1272;22675;-87
2023/03/10 04:51:00;;;;;;;31.20;15.60;;;;;;;4.42;100.00;96811.42;133815;1279;22744;-86
2023/03/10 04:54:03;;;;;;;17.90;11.60;;;;;;;4.44;100.00;96806.84;134137;1279;22540;-88
2023/03/10 04:57:07;;;;;;;18.30;11.20;;;;;;;4.44;100.00;96800.86;134620;1279;22546;-88
2023/03/10 05:00:11;;;;;;;22.80;12.60;;;;;;;4.47;100.00;96793.70;133731;1266;22547;-87
2023/03/10 05:03:14;;;;;;;18.40;10.50;;;;;;;4.48;100.00;96796.86;132858;1279;25016;-87
2023/03/10 05:06:17;;;;;;;18.40;11.50;;;;;;;4.48;100.00;96790.77;132800;1279;24326;-86
2023/03/10 05:09:20;;;;;;;15.30;10.80;;;;;;;4.51;100.00;96791.12;132814;1267;22618;-86
2023/03/10 05:12:23;;;;;;;19.10;10.40;;;;;;;4.53;100.00;96781.83;132718;1279;22523;-87
2023/03/10 05:15:26;;;;;;;18.30;9.90;;;;;;;4.53;100.00;96782.48;132673;1279;25177;-86
2023/03/10 05:18:29;;;;;;;21.50;10.90;;;;;;;4.57;100.00;96780.87;132657;1279;24403;-86
2023/03/10 05:21:32;;;;;;;14.40;9.60;;;;;;;4.62;100.00;96778.19;132694;1279;22539;-87
2023/03/10 05:24:35;;;;;;;19.80;10.10;;;;;;;4.66;100.00;96779.17;132767;1279;25344;-87
2023/03/10 05:27:38;;;;;;;16.60;9.60;;;;;;;4.73;100.00;96773.84;132624;1279;22731;-88
2023/03/10 05:30:41;;;;;;;18.20;9.90;;;;;;;4.81;100.00;96775.69;132615;1279;22656;-87
2023/03/10 05:33:44;;;;;;;16.10;9.50;;;;;;;4.91;100.00;96769.61;132564;1279;24235;-88
2023/03/10 05:36:47;;;;;;;14.60;9.70;;;;;;;4.99;100.00;96767.85;132759;1279;24288;-87
2023/03/10 05:39:50;;;;;;;18.30;10.00;;;;;;;5.09;100.00;96763.36;132609;1279;22525;-88
2023/03/10 05:42:53;;;;;;;15.60;10.00;;;;;;;5.21;100.00;96760.91;132626;1279;22528;-84
2023/03/10 05:45:56;;;;;;;15.80;9.20;;;;;;;5.36;100.00;96764.16;132719;1279;22541;-85
2023/03/10 05:48:59;;;;;;;18.30;8.80;;;;;;;5.51;100.00;96758.14;132715;1279;22680;-83
2023/03/10 05:52:02;;;;;;;14.50;8.20;;;;;;;5.67;100.00;96757.35;132816;1279;22594;-85
2023/03/10 05:55:04;;;;;;;16.40;8.80;;;;;;;5.81;100.00;96755.94;133656;1279;22593;-86
2023/03/10 05:58:07;;;;;;;15.50;8.60;;;;;;;5.91;100.00;96759.63;132522;1279;22528;-86
2023/03/10 06:01:10;;;;;;;16.10;10.00;;;;;;;6.00;100.00;96758.09;132588;1273;24236;-85
2023/03/10 06:04:13;;;;;;;16.10;9.60;;;;;;;6.10;100.00;96761.23;132631;1279;22579;-86
2023/03/10 06:07:16;;;;;;;20.40;11.30;;;;;;;6.19;100.00;96757.56;132594;1279;22528;-85
2023/03/10 06:10:19;;;;;;;13.70;9.40;;;;;;;6.30;100.00;96755.76;132594;1279;25372;-88
2023/03/10 06:13:22;;;;;;;14.90;9.40;;;;;;;6.41;100.00;96752.95;132782;1279;22547;-87
2023/03/10 06:16:25;;;;;;;15.50;8.60;;;;;;;6.51;100.00;96749.52;132778;1279;22528;-89
2023/03/10 06:19:28;;;;;;;13.60;8.70;;;;;;;6.61;100.00;96743.55;133396;1278;25428;-89
2023/03/10 06:22:31;;;;;;;18.10;9.10;;;;;;;6.72;100.00;96739.20;132664;1279;22643;-87
2023/03/10 06:25:34;;;;;;;21.30;11.20;;;;;;;6.81;100.00;96733.43;132660;1276;22527;-86
2023/03/10 06:28:36;;;;;;;16.30;10.00;;;;;;;6.89;100.00;96731.42;132687;1279;22539;-86
2023/03/10 06:31:39;;;;;;;17.70;10.30;;;;;;;6.94;100.00;96728.96;132860;1279;22528;-87
2023/03/10 06:34:42;;;;;;;16.60;9.10;;;;;;;6.99;100.00;96721.70;133920;1274;22564;-85
2023/03/10 06:37:45;;;;;;;12.30;8.50;;;;;;;7.04;100.00;96726.72;134789;1278;22845;-85
2023/03/10 06:40:48;;;;;;;13.90;7.90;;;;;;;7.09;100.00;96723.36;132760;1278;22568;-88
2023/03/10 06:43:51;;;;;;;11.50;8.20;;;;;;;7.14;100.00;96724.17;132808;1278;22535;-89
2023/03/10 06:46:54;;;;;;;12.60;9.00;;;;;;;7.18;100.00;96720.23;132846;1278;22547;-88
2023/03/10 06:49:57;;;;;;;15.70;8.80;;;;;;;7.21;100.00;96712.98;133164;1279;25369;-86
2023/03/10 06:53:00;;;;;;;13.80;8.80;;;;;;;7.25;100.00;96710.20;133109;1279;23312;-87
2023/03/10 06:56:03;;;;;;;13.20;8.80;;;;;;;7.30;100.00;96704.37;132652;1279;22534;-87
2023/03/10 06:59:06;;;;;;;12.50;9.20;;;;;;;7.38;100.00;96706.16;132844;1278;25451;-86
2023/03/10 07:02:09;;;;;;;14.80;9.10;;;;;;;7.47;100.00;96705.80;132835;1279;25316;-88
2023/03/10 07:05:12;;;;;;;13.20;8.60;;;;;;;7.59;100.00;96699.13;132833;1279;24222;-88
2023/03/10 07:08:16;;;;;;;12.60;8.00;;;;;;;7.75;100.00;96697.43;132874;1278;22525;-92
2023/03/10 07:11:19;;;;;;;11.00;7.10;;;;;;;7.97;100.00;96693.02;132961;1279;22551;-93
2023/03/10 07:14:22;;;;;;;11.00;7.00;;;;;;;8.19;100.00;96700.94;132848;1279;22725;-91
2023/03/10 07:17:25;;;;;;;10.50;6.30;;;;;;;8.39;100.00;96700.15;132809;1278;22659;-87
2023/03/10 07:20:28;;;;;;;11.10;6.60;;;;;;;8.54;100.00;96686.29;133734;1279;23398;-82
2023/03/10 07:23:32;;;;;;;11.30;7.30;;;;;;;8.61;100.00;96687.20;134709;1275;23071;-90
2023/03/10 07:26:36;;;;;;;11.00;7.10;;;;;;;8.67;100.00;96687.16;133867;1279;24299;-86
2023/03/10 07:29:39;;;;;;;7.70;6.10;;;;;;;8.75;100.00;96688.73;132850;1279;22534;-86
2023/03/10 07:32:42;;;;;;;10.00;6.50;;;;;;;8.88;100.00;96679.00;132880;1278;23156;-89
2023/03/10 07:35:46;;;;;;;10.80;7.10;;;;;;;9.01;100.00;96678.60;133347;1278;25253;-92
2023/03/10 07:38:51;;;;;;;12.10;6.60;;;;;;;9.11;100.00;96685.31;133070;1275;22624;-92
2023/03/10 07:41:56;;;;;;;13.70;7.10;;;;;;;9.22;100.00;96686.06;133590;1279;22627;-91
2023/03/10 07:44:59;;;;;;;9.30;6.70;;;;;;;9.33;100.00;96680.88;133540;1279;25411;-89
2023/03/10 07:48:02;;;;;;;11.90;6.00;;;;;;;9.44;100.00;96684.79;133322;1278;24221;-91
2023/03/10 07:51:05;;;;;;;8.40;5.90;;;;;;;9.59;100.00;96689.98;134325;1279;22526;-89
2023/03/10 07:54:08;;;;;;;7.10;4.70;;;;;;;9.76;100.00;96689.85;134202;1279;22530;-91
2023/03/10 07:57:11;;;;;;;6.40;3.50;;;;;;;9.94;100.00;96690.52;135424;1278;22536;-88
2023/03/10 08:00:14;;;;;;;7.50;4.90;;;;;;;10.10;100.00;96689.84;135025;1274;22563;-89
2023/03/10 08:03:17;;;;;;;5.30;3.60;;;;;;;10.20;100.00;96689.63;135048;1275;22609;-88
2023/03/10 08:06:21;;;;;;;7.40;4.00;;;;;;;10.25;100.00;96689.83;133066;1279;22846;-88
2023/03/10 08:09:24;;;;;;;7.40;3.40;;;;;;;10.26;100.00;96681.36;132848;1278;23470;-89
2023/03/10 08:12:27;;;;;;;4.40;3.20;;;;;;;10.26;100.00;96680.00;132906;1272;22555;-90
2023/03/10 08:15:30;;;;;;;5.90;4.00;;;;;;;10.27;100.00;96676.15;132901;1278;22724;-90
2023/03/10 08:18:33;;;;;;;5.00;3.50;;;;;;;10.30;100.00;96668.89;132577;1279;24515;-89
2023/03/10 08:21:36;;;;;;;6.60;4.10;;;;;;;10.32;100.00;96671.79;132583;1279;24386;-90
2023/03/10 08:24:39;;;;;;;6.20;3.50;;;;;;;10.34;100.00;96668.80;132743;1278;24202;-90
2023/03/10 08:27:42;;;;;;;4.70;3.20;;;;;;;10.39;100.00;96667.84;132873;1279;25317;-90
2023/03/10 08:30:45;;;;;;;6.60;3.70;;;;;;;10.44;100.00;96660.80;132723;1278;25355;-89
2023/03/10 08:33:48;;;;;;;5.20;4.00;;;;;;;10.54;100.00;96659.95;132612;1278;22778;-90
2023/03/10 08:36:51;;;;;;;4.80;3.50;;;;;;;10.64;100.00;96657.02;132653;1267;25383;-89
2023/03/10 08:39:55;;;;;;;7.50;4.10;;;;;;;10.76;100.00;96653.15;132672;1278;22540;-89
2023/03/10 08:42:59;;;;;;;8.40;3.80;;;;;;;10.93;100.00;96646.27;132753;1279;22534;-89
2023/03/10 08:46:02;;;;;;;5.60;3.90;;;;;;;11.11;100.00;96641.65;132708;1271;25530;-91
2023/03/10 08:49:05;;;;;;;5.60;3.70;;;;;;;11.30;100.00;96636.45;132716;1275;22768;-89
2023/03/10 08:52:08;;;;;;;6.30;3.70;;;;;;;11.52;100.00;96631.28;133141;1275;22546;-88
2023/03/10 08:55:11;;;;;;;3.80;3.20;;;;;;;11.69;100.00;96628.64;132935;1267;22764;-86
2023/03/10 08:58:15;;;;;;;5.80;3.60;;;;;;;11.84;100.00;96623.04;132621;1278;25367;-90
2023/03/10 09:01:18;;;;;;;5.60;3.60;;;;;;;12.01;100.00;96620.73;132847;1278;22545;-90
2023/03/10 09:04:23;;;;;;;4.20;3.30;;;;;;;12.20;100.00;96620.87;132669;1278;22537;-90
2023/03/10 09:07:28;;;;;;;9.20;3.80;;;;;;;12.37;100.00;96616.08;132664;1278;24419;-91
2023/03/10 09:10:35;;;;;;;7.30;3.20;;;;;;;12.46;100.00;96614.36;132718;1278;25498;-89
2023/03/10 09:13:41;;;;;;;3.90;3.10;;;;;;;12.58;100.00;96612.63;132662;1278;23975;-88
2023/03/10 09:16:49;;;;;;;6.20;3.20;;;;;;;12.70;100.00;96610.27;132796;1279;22588;-89
2023/03/10 09:19:52;;;;;;;3.70;3.00;;;;;;;12.81;100.00;96612.41;132601;1279;22550;-88
2023/03/10 09:23:00;;;;;;;3.40;2.60;;;;;;;12.96;100.00;96611.11;132723;1279;22528;-88
2023/03/10 09:26:03;;;;;;;2.90;2.60;;;;;;;13.14;100.00;96607.58;132556;1256;25501;-91
2023/03/10 09:29:06;;;;;;;5.40;3.50;;;;;;;13.36;100.00;96602.36;132893;1278;22939;-91
2023/03/10 09:32:13;;;;;;;4.00;2.80;;;;;;;13.57;100.00;96603.84;133447;1279;23789;-88
2023/03/10 09:35:18;;;;;;;4.80;2.30;;;;;;;13.77;100.00;96602.94;133923;1278;22644;-87
2023/03/10 09:38:21;;;;;;;6.20;3.30;;;;;;;13.93;100.00;96601.81;133698;1269;24288;-92
2023/03/10 09:41:24;;;;;;;4.30;2.70;;;;;;;14.05;100.00;96604.59;134165;1278;22528;-87
2023/03/10 09:44:44;;;;;;;;;;;;;;;;;;;;;
2023/03/10 09:47:47;;;;;;;5.20;2.40;;;;;;;14.33;100.00;96609.73;134143;1278;22638;-90
2023/03/10 09:50:53;;;;;;;2.70;2.20;;;;;;;14.48;100.00;96605.36;133646;1278;23329;-87
2023/03/10 09:54:00;;;;;;;6.30;2.30;;;;;;;14.67;100.00;96598.98;134676;1279;22946;-84
2023/03/10 09:57:14;;;;;;;4.00;2.10;;;;;;;14.91;100.00;96607.67;135190;1278;22546;-85
2023/03/10 10:00:20;;;;;;;4.80;2.50;;;;;;;15.13;100.00;96603.21;135246;1279;23957;-84
2023/03/10 10:03:41;;;;;;;5.20;3.70;;;;;;;15.32;100.00;96605.48;134817;1278;23214;-85
2023/03/10 10:06:45;;;;;;;5.90;4.20;;;;;;;15.49;100.00;96609.36;134575;1278;22533;-86
2023/03/10 10:09:48;;;;;;;3.90;2.70;;;;;;;15.59;100.00;96609.18;133738;1279;22651;-88
2023/03/10 10:12:52;;;;;;;1.90;1.80;;;;;;;15.69;100.00;96607.57;133889;1278;22540;-88
2023/03/10 10:15:56;;;;;;;6.20;3.50;;;;;;;15.74;100.00;96603.52;134032;1278;22537;-88
2023/03/10 10:18:58;;;;;;;6.20;3.20;;;;;;;15.80;100.00;96596.70;133774;1278;23914;-90
2023/03/10 10:22:02;;;;;;;2.60;1.80;;;;;;;15.85;100.00;96598.02;133292;1279;25448;-90
2023/03/10 10:25:04;;;;;;;3.10;2.10;;;;;;;15.87;100.00;96598.70;132710;1279;22483;-90
2023/03/10 10:28:09;;;;;;;4.70;2.60;;;;;;;15.86;100.00;96593.12;132768;1278;22552;-91
2023/03/10 10:31:14;;;;;;;6.20;2.00;;;;;;;15.83;100.00;96586.63;132746;1272;22741;-91
2023/03/10 10:34:19;;;;;;;2.40;1.90;;;;;;;15.82;100.00;96581.46;132666;1275;22541;-92
2023/03/10 10:37:25;;;;;;;3.30;2.10;;;;;;;15.83;100.00;96580.52;132590;1278;22556;-91
2023/03/10 10:40:33;;;;;;;2.50;2.30;;;;;;;15.87;100.00;96578.61;132797;1267;22633;-91
2023/03/10 10:43:36;;;;;;;2.50;2.20;;;;;;;15.87;100.00;96573.16;132883;1278;22624;-91
2023/03/10 10:46:39;;;;;;;4.70;2.50;;;;;;;15.87;100.00;96572.44;132777;1278;24334;-90
2023/03/10 10:49:43;;;;;;;3.40;2.20;;;;;;;15.87;100.00;96571.80;132768;1278;22553;-92
2023/03/10 10:52:51;;;;;;;3.50;2.50;;;;;;;15.90;100.00;96568.30;133052;1275;22543;-92
2023/03/10 10:55:55;;;;;;;2.70;2.30;;;;;;;15.92;100.00;96561.36;133143;1272;25485;-90
2023/03/10 10:58:58;;;;;;;3.50;2.20;;;;;;;15.90;100.00;96557.77;132887;1278;22527;-90
2023/03/10 11:02:01;;;;;;;5.40;2.60;;;;;;;15.86;100.00;96555.65;133050;1278;26613;-91
2023/03/10 11:05:04;;;;;;;3.30;2.40;;;;;;;15.82;100.00;96552.33;132567;1270;23355;-90
2023/03/10 11:08:08;;;;;;;4.80;2.70;;;;;;;15.78;100.00;96549.64;132422;1281;24228;-90
2023/03/10 11:11:11;;;;;;;6.20;2.30;;;;;;;15.83;100.00;96543.40;132515;1281;25334;-89
2023/03/10 11:14:14;;;;;;;6.70;2.50;;;;;;;15.92;100.00;96543.04;132385;1281;25343;-90
2023/03/10 11:17:17;;;;;;;3.70;2.50;;;;;;;16.00;100.00;96541.43;132461;1281;22549;-90
2023/03/10 11:20:22;;;;;;;2.70;2.40;;;;;;;16.04;100.00;96528.60;132326;1281;22571;-90
2023/03/10 11:23:25;;;;;;;4.50;2.80;;;;;;;16.14;100.00;96519.02;132774;1278;25538;-90
2023/03/10 11:26:28;;;;;;;4.40;2.70;;;;;;;16.29;100.00;96512.96;133787;1278;24087;-86
2023/03/10 11:29:30;;;;;;;7.10;3.50;;;;;;;16.45;95.73;96511.27;133352;1278;24624;-86
2023/03/10 11:32:34;;;;;;;4.30;2.80;;;;;;;16.59;82.96;96510.64;133771;1278;24219;-84
2023/03/10 11:35:37;;;;;;;6.50;4.50;;;;;;;16.79;82.10;96506.73;134269;1278;22484;-88
2023/03/10 11:38:41;;;;;;;7.60;4.20;;;;;;;17.00;79.55;96498.77;133870;1278;22466;-92
2023/03/10 11:41:44;;;;;;;7.00;4.40;;;;;;;17.17;77.33;96495.97;134529;1273;22919;-87
2023/03/10 11:44:47;;;;;;;6.50;3.90;;;;;;;17.26;77.13;96493.25;135105;1274;22485;-86
2023/03/10 11:47:50;;;;;;;5.00;2.90;;;;;;;17.32;76.40;96491.69;134979;1278;26055;-85
2023/03/10 11:50:53;;;;;;;3.80;2.80;;;;;;;17.31;74.00;96477.30;134524;1278;22485;-86
2023/03/10 11:53:56;;;;;;;4.40;2.60;;;;;;;17.29;74.32;96481.97;134405;1278;23128;-87
2023/03/10 11:57:01;;;;;;;3.50;2.50;;;;;;;17.25;73.50;96481.58;134450;1278;25523;-86
2023/03/10 12:00:04;;;;;;;3.20;2.20;;;;;;;17.26;72.85;96480.40;134173;1272;24175;-85
2023/03/10 12:03:07;;;;;;;2.50;2.30;;;;;;;17.24;72.35;96479.95;133672;1278;22679;-87
2023/03/10 12:06:10;;;;;;;4.70;2.70;;;;;;;17.20;71.83;96481.63;133891;1275;25432;-87
2023/03/10 12:09:13;;;;;;;5.40;2.80;;;;;;;17.21;69.96;96475.91;133693;1278;24314;-85
2023/03/10 12:12:16;;;;;;;5.90;3.30;;;;;;;17.22;69.06;96473.84;133705;1278;22527;-86
2023/03/10 12:15:19;;;;;;;6.40;3.40;;;;;;;17.20;70.30;96476.65;133344;1278;24418;-85
2023/03/10 12:18:22;;;;;;;9.90;3.50;;;;;;;17.20;70.26;96477.02;132587;1278;22527;-86
2023/03/10 12:21:25;;;;;;;8.60;3.80;;;;;;;17.21;70.29;96471.94;132725;1278;22988;-86
2023/03/10 12:24:28;;;;;;;7.00;3.90;;;;;;;17.23;70.24;96470.48;132665;1256;24306;-87
2023/03/10 12:27:31;;;;;;;5.70;3.70;;;;;;;17.27;70.80;96470.92;134183;1278;22649;-88
2023/03/10 12:30:34;;;;;;;5.50;3.30;;;;;;;17.29;70.68;96470.65;135372;1271;22566;-85
2023/03/10 12:33:38;;;;;;;6.00;3.90;;;;;;;17.36;70.88;96459.86;136408;1278;22366;-87
2023/03/10 12:36:41;;;;;;;5.90;4.00;;;;;;;17.43;70.77;96460.38;135698;1274;22527;-88
2023/03/10 12:39:44;;;;;;;6.70;4.80;;;;;;;17.42;70.71;96458.60;132694;1278;22530;-87
2023/03/10 12:42:47;;;;;;;9.10;5.90;;;;;;;17.43;71.21;96459.06;132683;1278;22558;-88
2023/03/10 12:45:50;;;;;;;7.00;4.60;;;;;;;17.40;69.14;96459.66;133029;1278;25462;-86
2023/03/10 12:48:54;;;;;;;6.00;4.00;;;;;;;17.36;69.35;96459.80;132586;1271;25358;-86
2023/03/10 12:51:57;;;;;;;10.80;4.10;;;;;;;17.26;67.95;96459.69;132687;1278;25434;-87
2023/03/10 12:54:59;;;;;;;6.80;4.90;;;;;;;17.15;67.89;96452.94;132912;1275;22570;-86
2023/03/10 12:58:02;;;;;;;5.10;4.60;;;;;;;17.02;67.51;96456.92;133053;1279;25247;-86
2023/03/10 13:01:06;;;;;;;4.80;3.80;;;;;;;16.87;68.49;96457.93;132703;1278;25355;-86
2023/03/10 13:04:13;;;;;;;12.10;4.90;;;;;;;16.74;69.03;96459.45;133258;1275;22523;-87
2023/03/10 13:07:17;;;;;;;10.20;6.10;;;;;;;16.61;69.32;96465.41;133368;1278;22622;-88
2023/03/10 13:10:25;;;;;;;7.20;5.00;;;;;;;16.46;69.41;96464.41;133579;1278;22587;-88
2023/03/10 13:13:28;;;;;;;8.60;4.60;;;;;;;16.29;69.47;96467.35;133467;1278;24191;-87
2023/03/10 13:16:31;;;;;;;11.60;5.00;;;;;;;16.14;70.01;96469.50;134147;1278;24324;-86
2023/03/10 13:19:34;;;;;;;13.10;4.90;;;;;;;16.02;70.62;96467.95;133087;1278;23623;-87
2023/03/10 13:22:37;;;;;;;9.30;4.10;;;;;;;15.91;71.11;96469.73;132973;1278;22487;-89
2023/03/10 13:25:40;;;;;;;11.20;5.50;;;;;;;15.81;71.43;96465.05;132850;1278;22537;-89
2023/03/10 13:28:42;;;;;;;6.50;4.20;;;;;;;15.75;71.46;96469.76;134389;1278;22545;-84
2023/03/10 13:31:46;;;;;;;7.20;4.50;;;;;;;15.72;72.23;96458.73;134887;1278;22799;-86
2023/03/10 13:34:48;;;;;;;14.80;8.50;;;;;;;15.74;72.09;96462.80;135316;1278;22542;-87
2023/03/10 13:37:51;;;;;;;11.70;5.40;;;;;;;15.79;72.12;96469.70;133754;1278;22589;-86
2023/03/10 13:40:54;;;;;;;7.00;4.20;;;;;;;15.86;71.99;96473.95;133603;1278;22592;-89
2023/03/10 13:44:00;;;;;;;6.70;3.30;;;;;;;15.89;72.40;96477.79;132974;1278;22485;-89
2023/03/10 13:47:06;;;;;;;3.20;2.60;;;;;;;15.89;72.65;96479.42;132994;1278;22586;-88
2023/03/10 13:50:11;;;;;;;4.50;3.20;;;;;;;15.83;73.33;96480.25;132711;1278;23710;-87
2023/03/10 13:53:24;;;;;;;4.90;4.30;;;;;;;15.76;73.72;96482.73;132699;1278;25536;-90
2023/03/10 13:56:28;;;;;;;4.80;3.50;;;;;;;15.68;73.91;96480.73;132702;1275;22559;-87
2023/03/10 14:03:04;;;;;;;4.90;3.20;;;;;;;15.53;74.40;96491.48;132719;1278;22552;-87
2023/03/10 14:06:07;;;;;;;6.20;5.10;;;;;;;15.41;74.63;96490.27;132771;1276;22525;-88